Time;durP1;ratioP1;P1;durP2;ratioP2;P2;SDS_P1;SDS_P2;PMS_P1;PMS_P2;Temp;Humidity;BMP_temperature;BMP_pressure;BME280_temperature;BME280_humidity;BME280_pressure;Samples;Min_cycle;Max_cycle;Signal;HPM_P1;HPM_P2
2021/01/15 04:01:42;;;;;;;34.55;21.00;;;;;;;-3.24;100.00;99466.22;1787950;77;20993;-71
2021/01/15 04:04:10;;;;;;;32.50;18.52;;;;;;;-3.24;100.00;99458.58;1801089;77;21132;-70
2021/01/15 04:06:38;;;;;;;38.35;23.02;;;;;;;-3.24;100.00;99457.30;1801034;78;21170;-67
2021/01/15 04:09:07;;;;;;;33.98;20.23;;;;;;;-3.25;100.00;99459.98;1799458;78;21614;-70
2021/01/15 04:11:36;;;;;;;35.90;21.30;;;;;;;-3.30;100.00;99465.39;1798329;78;21484;-68
2021/01/15 04:14:04;;;;;;;36.77;22.82;;;;;;;-3.33;100.00;99463.53;1794227;78;22511;-72
2021/01/15 04:16:32;;;;;;;35.43;21.12;;;;;;;-3.38;100.00;99462.61;1797791;78;21104;-72
2021/01/15 04:19:03;;;;;;;35.10;21.70;;;;;;;-3.40;100.00;99459.37;1798007;78;21129;-71
2021/01/15 04:21:32;;;;;;;33.53;20.15;;;;;;;-3.42;100.00;99453.56;1779674;79;20990;-72
2021/01/15 04:24:01;;;;;;;29.90;18.15;;;;;;;-3.45;100.00;99439.34;1796860;78;20974;-72
2021/01/15 04:26:30;;;;;;;36.30;21.55;;;;;;;-3.47;100.00;99430.17;1796012;78;21368;-71
2021/01/15 04:28:58;;;;;;;31.00;19.32;;;;;;;-3.48;100.00;99440.02;1791821;78;22077;-72
2021/01/15 04:31:27;;;;;;;29.63;18.90;;;;;;;-3.48;100.00;99452.30;1796775;79;21125;-71
2021/01/15 04:33:55;;;;;;;33.48;20.43;;;;;;;-3.46;100.00;99462.36;1799563;78;21500;-71
2021/01/15 04:36:25;;;;;;;29.45;19.17;;;;;;;-3.46;100.00;99465.72;1803048;78;21037;-72
2021/01/15 04:38:54;;;;;;;32.08;18.98;;;;;;;-3.45;100.00;99448.69;1797229;79;21355;-71
2021/01/15 04:41:22;;;;;;;31.80;19.62;;;;;;;-3.43;100.00;99442.56;1800968;78;21566;-72
2021/01/15 04:43:54;;;;;;;32.15;19.40;;;;;;;-3.42;100.00;99461.21;1801403;78;21512;-72
2021/01/15 04:46:24;;;;;;;29.15;17.65;;;;;;;-3.42;100.00;99464.56;1786168;78;21056;-72
2021/01/15 04:48:53;;;;;;;30.35;18.55;;;;;;;-3.39;100.00;99457.63;1789058;78;21563;-73
2021/01/15 04:51:26;;;;;;;32.67;19.25;;;;;;;-3.38;100.00;99474.07;1785959;78;21128;-72
2021/01/15 04:54:04;;;;;;;28.77;18.20;;;;;;;-3.38;100.00;99475.34;1787351;78;21144;-72
2021/01/15 04:56:51;;;;;;;30.12;17.75;;;;;;;-3.35;100.00;99473.84;1782827;78;21179;-70
2021/01/15 04:59:19;;;;;;;32.28;19.37;;;;;;;-3.32;100.00;99476.17;1783562;78;21543;-69
2021/01/15 05:01:48;;;;;;;33.83;20.85;;;;;;;-3.31;100.00;99475.24;1781644;78;21203;-66
2021/01/15 05:04:18;;;;;;;31.68;20.48;;;;;;;-3.30;100.00;99474.77;1774923;79;21376;-69
2021/01/15 05:06:52;;;;;;;34.25;19.75;;;;;;;-3.30;100.00;99473.03;1771072;79;20934;-71
2021/01/15 05:09:23;;;;;;;33.25;19.37;;;;;;;-3.31;100.00;99478.26;1773268;79;21058;-70
2021/01/15 05:11:53;;;;;;;32.23;19.42;;;;;;;-3.31;100.00;99487.17;1773111;79;20994;-70
2021/01/15 05:14:21;;;;;;;33.23;20.52;;;;;;;-3.29;100.00;99481.52;1777263;79;20995;-73
2021/01/15 05:16:50;;;;;;;31.73;18.85;;;;;;;-3.29;100.00;99481.05;1804302;77;21464;-71
2021/01/15 05:19:19;;;;;;;36.23;19.82;;;;;;;-3.29;100.00;99481.05;1812833;77;21152;-69
2021/01/15 05:21:50;;;;;;;42.00;22.73;;;;;;;-3.29;100.00;99487.42;1774555;79;21062;-68
2021/01/15 05:24:19;;;;;;;39.30;21.85;;;;;;;-3.29;100.00;99491.71;1767863;80;21144;-68
2021/01/15 05:26:47;;;;;;;37.93;20.92;;;;;;;-3.29;100.00;99500.63;1751508;79;21888;-66
2021/01/15 05:29:16;;;;;;;36.90;19.75;;;;;;;-3.26;100.00;99510.14;1820436;77;22063;-66
2021/01/15 05:31:55;;;;;;;32.60;19.95;;;;;;;-3.20;100.00;99508.86;1790569;77;21119;-67
2021/01/15 05:34:25;;;;;;;34.27;20.25;;;;;;;-3.17;100.00;99507.83;1772481;79;21160;-66
2021/01/15 05:36:54;;;;;;;36.50;22.30;;;;;;;-3.12;100.00;99500.64;1802982;77;21641;-66
2021/01/15 05:39:26;;;;;;;35.90;22.00;;;;;;;-3.08;100.00;99500.77;1803482;77;21199;-66
2021/01/15 05:42:04;;;;;;;35.80;22.22;;;;;;;-3.02;100.00;99496.48;1806274;77;21255;-65
2021/01/15 05:44:33;;;;;;;34.25;20.12;;;;;;;-2.97;100.00;99490.10;1801110;77;21223;-66
2021/01/15 05:47:01;;;;;;;34.63;21.07;;;;;;;-2.94;100.00;99484.78;1750832;79;21188;-67
2021/01/15 05:49:31;;;;;;;32.45;20.05;;;;;;;-2.95;100.00;99478.06;1747505;79;21116;-65
2021/01/15 05:52:09;;;;;;;36.88;20.17;;;;;;;-2.96;100.00;99456.02;1802265;78;21052;-65
2021/01/15 05:54:37;;;;;;;34.00;21.00;;;;;;;-2.97;100.00;99449.78;1794292;78;21199;-65
2021/01/15 05:57:06;;;;;;;36.45;21.17;;;;;;;-3.01;100.00;99452.21;1795211;77;20965;-67
2021/01/15 05:59:38;;;;;;;39.00;23.20;;;;;;;-3.07;100.00;99461.15;1799395;78;21196;-67
2021/01/15 06:02:06;;;;;;;39.70;23.80;;;;;;;-3.12;100.00;99461.94;1799525;78;21571;-67
2021/01/15 06:04:38;;;;;;;39.63;24.37;;;;;;;-3.15;100.00;99470.28;1798797;78;21057;-68
2021/01/15 06:07:12;;;;;;;35.25;21.33;;;;;;;-3.19;100.00;99467.95;1804463;77;21623;-70
2021/01/15 06:09:41;;;;;;;35.58;20.68;;;;;;;-3.21;100.00;99481.29;1802302;78;21845;-68
2021/01/15 06:12:18;;;;;;;33.20;21.15;;;;;;;-3.21;100.00;99495.78;1798571;77;21013;-67
2021/01/15 06:14:50;;;;;;;35.55;19.57;;;;;;;-3.17;100.00;99502.73;1805724;77;21116;-68
2021/01/15 06:17:20;;;;;;;34.08;21.12;;;;;;;-3.10;100.00;99500.89;1803209;77;21936;-67
2021/01/15 06:19:58;;;;;;;31.93;19.95;;;;;;;-3.02;100.00;99500.31;1801509;79;21201;-69
2021/01/15 06:22:44;;;;;;;32.67;19.48;;;;;;;-2.94;100.00;99503.09;1804316;77;21211;-67
2021/01/15 06:25:33;;;;;;;35.70;20.65;;;;;;;-2.85;100.00;99513.06;1800840;77;20954;-68
2021/01/15 06:28:04;;;;;;;31.00;19.62;;;;;;;-2.77;100.00;99515.38;1797823;77;21097;-68
2021/01/15 06:30:33;;;;;;;33.90;21.27;;;;;;;-2.70;100.00;99516.53;1801654;77;21227;-69
2021/01/15 06:33:14;;;;;;;33.20;20.43;;;;;;;-2.61;100.00;99521.89;1804429;77;21389;-69
2021/01/15 06:35:47;;;;;;;37.70;22.48;;;;;;;-2.57;100.00;99527.11;1798812;77;20986;-66
2021/01/15 06:38:18;;;;;;;37.58;22.80;;;;;;;-2.51;100.00;99540.66;1800675;77;21694;-69
2021/01/15 06:40:50;;;;;;;41.23;23.70;;;;;;;-2.48;100.00;99551.44;1809238;79;25072;-69
2021/01/15 06:43:33;;;;;;;37.15;23.47;;;;;;;-2.45;100.00;99550.41;1801003;77;21136;-69
2021/01/15 06:46:03;;;;;;;44.30;25.17;;;;;;;-2.43;100.00;99551.08;1802348;77;21545;-69
2021/01/15 06:48:38;;;;;;;40.43;24.82;;;;;;;-2.40;100.00;99541.92;1806041;77;21148;-70
2021/01/15 06:51:07;;;;;;;46.02;25.00;;;;;;;-2.37;100.00;99540.41;1806097;79;20963;-69
2021/01/15 06:53:44;;;;;;;42.03;24.02;;;;;;;-2.33;100.00;99553.75;1801771;77;21579;-66
2021/01/15 06:56:15;;;;;;;47.80;26.75;;;;;;;-2.30;100.00;99549.70;1804730;77;21634;-70
2021/01/15 06:58:44;;;;;;;45.65;26.33;;;;;;;-2.25;100.00;99557.33;1804738;79;21264;-69
2021/01/15 07:01:28;;;;;;;46.80;27.10;;;;;;;-2.22;100.00;99549.91;1809034;77;21097;-66
2021/01/15 07:04:30;;;;;;;47.13;26.87;;;;;;;-2.19;100.00;99550.15;1775300;79;21093;-69
2021/01/15 07:07:15;;;;;;;51.65;30.55;;;;;;;-2.15;100.00;99562.55;1782870;79;47262;-69
2021/01/15 07:09:47;;;;;;;54.18;29.75;;;;;;;-2.11;100.00;99556.74;1780467;79;21128;-70
2021/01/15 07:12:17;;;;;;;47.75;29.18;;;;;;;-2.08;100.00;99567.53;1783209;79;21376;-66
2021/01/15 07:14:51;;;;;;;48.02;29.45;;;;;;;-2.06;100.00;99576.34;1775451;79;21208;-69
2021/01/15 07:17:36;;;;;;;56.05;32.28;;;;;;;-2.06;100.00;99577.62;1774706;78;21042;-68
2021/01/15 07:20:14;;;;;;;57.30;32.50;;;;;;;-2.05;100.00;99583.06;1791378;78;21072;-67
2021/01/15 07:22:56;;;;;;;54.67;32.83;;;;;;;-2.04;100.00;99583.43;1807282;78;21534;-68
2021/01/15 07:25:24;;;;;;;58.70;34.00;;;;;;;-2.03;100.00;99572.27;1806093;78;22144;-68
2021/01/15 07:27:55;;;;;;;58.42;35.23;;;;;;;-2.02;100.00;99569.59;1807594;77;21450;-67
2021/01/15 07:30:28;;;;;;;62.35;35.88;;;;;;;-1.99;100.00;99573.66;1804723;77;21112;-67
2021/01/15 07:32:58;;;;;;;59.55;37.05;;;;;;;-1.97;100.00;99573.89;1803394;77;21564;-66
2021/01/15 07:35:29;;;;;;;62.08;37.15;;;;;;;-1.94;100.00;99581.77;1806359;77;21188;-68
2021/01/15 07:38:13;;;;;;;72.87;42.50;;;;;;;-1.90;100.00;99578.03;1805039;77;22793;-69
2021/01/15 07:40:42;;;;;;;73.33;39.80;;;;;;;-1.86;100.00;99582.44;1804335;77;21120;-68
2021/01/15 07:43:33;;;;;;;80.22;41.25;;;;;;;-1.83;100.00;99589.41;1801162;77;21184;-66
2021/01/15 07:46:06;;;;;;;68.17;37.70;;;;;;;-1.79;100.00;99588.23;1804236;77;21065;-69
2021/01/15 07:48:35;;;;;;;58.13;35.35;;;;;;;-1.68;100.00;99595.52;1810353;77;27552;-69
2021/01/15 07:51:14;;;;;;;62.53;35.88;;;;;;;-1.68;100.00;99595.52;1805577;77;21316;-67
2021/01/15 07:53:44;;;;;;;66.07;35.75;;;;;;;-1.65;100.00;99594.81;1811678;77;21536;-67
2021/01/15 07:56:12;;;;;;;64.17;36.95;;;;;;;-1.63;100.00;99599.80;1803223;77;21950;-68
2021/01/15 07:58:47;;;;;;;60.73;34.33;;;;;;;-1.60;100.00;99607.22;1808937;77;21125;-67
2021/01/15 08:01:18;;;;;;;60.80;36.68;;;;;;;-1.58;100.00;99609.20;1804831;77;22067;-67
2021/01/15 08:03:52;;;;;;;51.77;31.42;;;;;;;-1.56;100.00;99613.72;1805187;77;21372;-67
2021/01/15 08:06:20;;;;;;;57.17;32.42;;;;;;;-1.55;100.00;99617.92;1801169;78;21120;-68
2021/01/15 08:09:04;;;;;;;58.52;35.10;;;;;;;-1.57;100.00;99614.19;1775108;79;21145;-68
2021/01/15 08:11:35;;;;;;;51.15;30.20;;;;;;;-1.57;100.00;99620.58;1782376;78;21013;-69
2021/01/15 08:14:23;;;;;;;51.58;29.37;;;;;;;-1.53;100.00;99612.20;1779930;78;21539;-69
2021/01/15 08:16:51;;;;;;;52.45;31.20;;;;;;;-1.51;100.00;99609.88;1785371;78;21541;-69
2021/01/15 08:19:23;;;;;;;48.50;29.02;;;;;;;-1.46;100.00;99609.51;1784160;78;21160;-68
2021/01/15 08:21:51;;;;;;;52.45;29.15;;;;;;;-1.44;100.00;99614.02;1782379;78;20990;-69
2021/01/15 08:24:22;;;;;;;45.12;26.77;;;;;;;-1.43;100.00;99613.58;1789786;78;21034;-67
2021/01/15 08:27:03;;;;;;;45.48;26.70;;;;;;;-1.42;100.00;99624.14;1787868;78;21366;-70
2021/01/15 08:29:31;;;;;;;45.65;26.10;;;;;;;-1.43;100.00;99618.22;1782235;78;22279;-67
2021/01/15 08:32:00;;;;;;;48.58;29.00;;;;;;;-1.42;100.00;99621.11;1779138;78;21120;-66
2021/01/15 08:34:33;;;;;;;43.10;26.90;;;;;;;-1.40;100.00;99624.81;1781208;78;21220;-70
2021/01/15 08:37:14;;;;;;;48.68;29.02;;;;;;;-1.39;100.00;99617.04;1782404;79;21140;-70
2021/01/15 08:39:54;;;;;;;51.70;30.57;;;;;;;-1.38;100.00;99620.40;1784482;79;21168;-67
2021/01/15 08:42:23;;;;;;;48.65;30.10;;;;;;;-1.37;100.00;99610.04;1779350;78;21381;-69
2021/01/15 08:44:51;;;;;;;42.67;27.55;;;;;;;-1.33;100.00;99611.41;1792606;78;21120;-69
2021/01/15 08:47:21;;;;;;;53.25;31.15;;;;;;;-1.30;100.00;99605.25;1781882;78;21551;-66
2021/01/15 08:49:55;;;;;;;52.88;31.27;;;;;;;-1.26;100.00;99602.32;1781734;78;21120;-69
2021/01/15 08:52:32;;;;;;;57.00;32.05;;;;;;;-1.18;100.00;99595.78;1783883;78;21180;-70
2021/01/15 08:55:00;;;;;;;44.70;26.75;;;;;;;-1.11;100.00;99600.75;1780516;78;21147;-71
2021/01/15 08:57:28;;;;;;;48.65;29.02;;;;;;;-1.05;100.00;99602.35;1753797;79;21610;-71
2021/01/15 09:00:13;;;;;;;47.40;28.98;;;;;;;-0.98;100.00;99601.39;1787270;78;20930;-71
2021/01/15 09:02:42;;;;;;;49.63;29.52;;;;;;;-0.92;100.00;99600.88;1751945;80;21014;-69
2021/01/15 09:05:16;;;;;;;52.93;31.97;;;;;;;-0.86;100.00;99596.54;1748727;79;21157;-70
2021/01/15 09:07:48;;;;;;;52.25;32.23;;;;;;;-0.81;100.00;99594.41;1777699;78;21212;-72
2021/01/15 09:10:18;;;;;;;50.28;29.57;;;;;;;-0.76;100.00;99596.14;1784718;78;21642;-71
2021/01/15 09:12:47;;;;;;;50.58;30.12;;;;;;;-0.70;100.00;99599.12;1780031;78;20962;-70
2021/01/15 09:15:25;;;;;;;52.53;30.80;;;;;;;-0.70;100.00;99599.12;1781569;78;21735;-70
2021/01/15 09:17:54;;;;;;;47.15;28.55;;;;;;;-0.69;100.00;99596.41;1782808;78;21180;-70
2021/01/15 09:20:23;;;;;;;50.80;31.35;;;;;;;-0.66;100.00;99590.24;1781736;78;22271;-69
2021/01/15 09:22:53;;;;;;;51.15;30.95;;;;;;;-0.64;100.00;99580.70;1775766;78;21599;-68
2021/01/15 09:25:21;;;;;;;49.20;31.15;;;;;;;-0.64;100.00;99580.70;1766671;79;21380;-69
2021/01/15 09:27:50;;;;;;;49.98;30.52;;;;;;;-0.61;100.00;99575.30;1777534;79;21172;-69
2021/01/15 09:30:19;;;;;;;45.63;28.75;;;;;;;-0.52;100.00;99579.20;1764571;79;21144;-68
2021/01/15 09:32:48;;;;;;;54.73;32.00;;;;;;;-0.44;100.00;99576.47;1761224;79;21379;-68
2021/01/15 09:35:17;;;;;;;58.87;33.60;;;;;;;-0.39;100.00;99572.56;1772362;79;21237;-69
2021/01/15 09:37:47;;;;;;;58.50;34.27;;;;;;;-0.31;100.00;99569.36;1768168;79;21085;-69
2021/01/15 09:40:16;;;;;;;50.58;31.17;;;;;;;-0.21;100.00;99578.36;1771026;79;21078;-68
2021/01/15 09:42:49;;;;;;;53.20;30.60;;;;;;;-0.11;100.00;99589.45;1781844;77;20926;-68
2021/01/15 09:45:18;;;;;;;55.48;35.48;;;;;;;-0.06;100.00;99584.27;1804692;77;22190;-68
2021/01/15 09:47:47;;;;;;;55.63;32.83;;;;;;;0.00;100.00;99571.41;1803452;77;21072;-68
2021/01/15 09:50:18;;;;;;;62.45;37.15;;;;;;;0.07;100.00;99571.20;1779222;79;21192;-67
2021/01/15 09:52:49;;;;;;;54.90;33.28;;;;;;;0.11;100.00;99567.42;1808928;78;21088;-67
2021/01/15 09:55:17;;;;;;;52.38;33.48;;;;;;;0.15;100.00;99564.97;1809364;77;27452;-68
2021/01/15 09:57:49;;;;;;;57.40;33.58;;;;;;;0.16;100.00;99560.17;1807484;77;21143;-68
2021/01/15 10:00:19;;;;;;;48.52;30.30;;;;;;;0.18;100.00;99560.83;1759410;79;28601;-67
2021/01/15 10:02:48;;;;;;;48.00;30.35;;;;;;;0.24;100.00;99562.88;1796000;78;21005;-70
2021/01/15 10:05:18;;;;;;;47.43;30.43;;;;;;;0.30;100.00;99561.52;1786242;78;22447;-70
2021/01/15 10:07:48;;;;;;;43.40;27.87;;;;;;;0.34;100.00;99556.92;1775147;79;21035;-68
2021/01/15 10:10:16;;;;;;;45.92;27.65;;;;;;;0.42;100.00;99554.52;1765259;79;21637;-70
2021/01/15 10:12:45;;;;;;;46.58;28.83;;;;;;;0.47;100.00;99553.16;1738012;80;21089;-65
2021/01/15 10:15:14;;;;;;;50.55;30.43;;;;;;;0.50;100.00;99553.84;1735596;80;21247;-69
2021/01/15 10:17:44;;;;;;;53.15;31.50;;;;;;;0.49;100.00;99549.16;1738767;80;21195;-69
2021/01/15 10:20:14;;;;;;;;;;;;;;;0.48;100.00;99543.70;1772508;79;21152;-68
2021/01/15 10:22:43;;;;;;;50.78;30.27;;;;;;;0.47;100.00;99538.25;1776367;79;21209;-67
2021/01/15 10:25:13;;;;;;;48.87;30.17;;;;;;;0.45;100.00;99543.50;1765163;79;20999;-68
2021/01/15 10:27:41;;;;;;;53.45;31.45;;;;;;;0.48;100.00;99548.84;1764506;79;21149;-67
2021/01/15 10:30:10;;;;;;;48.23;29.10;;;;;;;0.46;100.00;99544.33;1771270;79;21501;-67
2021/01/15 10:32:39;;;;;;;48.87;30.05;;;;;;;0.46;100.00;99544.33;1773644;79;21152;-66
2021/01/15 10:35:09;;;;;;;47.85;30.05;;;;;;;0.46;100.00;99550.74;1771654;79;21346;-67
2021/01/15 10:37:39;;;;;;;49.42;31.12;;;;;;;0.48;100.00;99555.25;1771745;79;21156;-68
2021/01/15 10:40:09;;;;;;;40.95;25.05;;;;;;;0.52;100.00;99552.75;1774953;79;21026;-65
2021/01/15 10:42:39;;;;;;;39.67;24.18;;;;;;;0.57;100.00;99545.48;1766651;79;21606;-68
2021/01/15 10:45:09;;;;;;;36.55;22.40;;;;;;;0.62;100.00;99548.44;1781186;77;21212;-68
2021/01/15 10:47:41;;;;;;;33.02;20.80;;;;;;;0.62;100.00;99543.30;1775114;79;22325;-67
2021/01/15 10:50:13;;;;;;;32.90;20.68;;;;;;;0.63;100.00;99543.63;1778643;78;21014;-67
2021/01/15 10:52:42;;;;;;;30.65;19.60;;;;;;;0.69;100.00;99542.29;1798295;77;21057;-68
2021/01/15 10:55:13;;;;;;;28.50;17.92;;;;;;;0.72;100.00;99536.41;1799457;77;21179;-67
2021/01/15 10:57:41;;;;;;;31.33;18.90;;;;;;;0.77;100.00;99532.15;1795740;77;21509;-67
2021/01/15 11:00:17;;;;;;;33.40;19.80;;;;;;;0.79;100.00;99529.43;1800660;77;21367;-66
2021/01/15 11:02:49;;;;;;;35.03;20.55;;;;;;;0.84;100.00;99532.41;1797957;77;21210;-67
2021/01/15 11:05:18;;;;;;;33.83;20.25;;;;;;;0.91;100.00;99538.58;1803663;78;20954;-67
2021/01/15 11:07:46;;;;;;;31.37;20.05;;;;;;;0.97;100.00;99536.76;1778411;77;20914;-67
2021/01/15 11:10:16;;;;;;;30.55;19.42;;;;;;;0.94;100.00;99536.55;1749382;81;22466;-67
2021/01/15 11:12:45;;;;;;;33.10;20.17;;;;;;;0.90;100.00;99531.84;1748376;81;22342;-67
2021/01/15 11:15:14;;;;;;;30.12;19.23;;;;;;;0.87;100.00;99523.13;1772094;79;21205;-67
2021/01/15 11:17:43;;;;;;;33.33;19.07;;;;;;;0.86;100.00;99529.22;1792254;78;21179;-67
2021/01/15 11:20:13;;;;;;;33.50;19.40;;;;;;;0.84;100.00;99528.56;1767998;79;20999;-67
2021/01/15 11:22:45;;;;;;;34.33;19.73;;;;;;;0.78;100.00;99527.82;1794864;78;21610;-68
2021/01/15 11:25:14;;;;;;;31.62;20.62;;;;;;;0.72;100.00;99525.34;1794771;78;22554;-67
2021/01/15 11:27:43;;;;;;;36.35;22.25;;;;;;;0.65;100.00;99523.80;1747009;79;21208;-66
2021/01/15 11:30:13;;;;;;;39.98;20.15;;;;;;;0.57;100.00;99526.24;1767170;79;21247;-66
2021/01/15 11:32:42;;;;;;;33.25;21.30;;;;;;;0.51;100.00;99520.36;1767025;79;21192;-67
2021/01/15 11:35:12;;;;;;;31.25;19.55;;;;;;;0.43;100.00;99513.83;1771937;79;22515;-67
2021/01/15 11:37:40;;;;;;;30.08;18.15;;;;;;;0.35;100.00;99517.55;1763666;79;21208;-67
2021/01/15 11:40:11;;;;;;;29.80;19.10;;;;;;;0.31;100.00;99515.73;1763876;79;21844;-67
2021/01/15 11:42:39;;;;;;;31.02;18.90;;;;;;;0.30;100.00;99514.56;1766269;79;21126;-67
2021/01/15 11:45:09;;;;;;;31.40;18.48;;;;;;;0.28;100.00;99505.74;1778029;79;21161;-67
2021/01/15 11:47:37;;;;;;;30.62;18.75;;;;;;;0.25;100.00;99503.44;1766584;79;21660;-66
2021/01/15 11:50:07;;;;;;;27.15;16.20;;;;;;;0.20;100.00;99510.27;1774318;79;21388;-68
2021/01/15 11:52:35;;;;;;;28.50;17.12;;;;;;;0.15;100.00;99514.99;1774439;79;21559;-67
2021/01/15 11:55:05;;;;;;;27.82;17.10;;;;;;;0.13;100.00;99513.02;1771433;79;21065;-68
2021/01/15 11:57:34;;;;;;;26.35;16.25;;;;;;;0.10;100.00;99514.56;1776273;79;21611;-66
2021/01/15 12:00:23;;;;;;;25.23;16.20;;;;;;;0.11;100.00;99511.05;1771836;79;21507;-67
2021/01/15 12:02:52;;;;;;;28.47;16.30;;;;;;;0.11;100.00;99505.92;1674644;83;22333;-66
2021/01/15 12:05:21;;;;;;;26.85;16.12;;;;;;;0.16;100.00;99506.83;1675719;83;21536;-67
2021/01/15 12:07:51;;;;;;;27.05;16.20;;;;;;;0.22;100.00;99513.48;1672470;83;21213;-67
2021/01/15 12:10:20;;;;;;;24.25;15.13;;;;;;;0.31;100.00;99521.33;1673322;83;21056;-67
2021/01/15 12:12:49;;;;;;;25.32;15.30;;;;;;;0.37;100.00;99519.02;1673057;83;21240;-67
2021/01/15 12:15:18;;;;;;;26.35;15.63;;;;;;;0.44;100.00;99523.13;1678199;83;22684;-67
2021/01/15 12:17:46;;;;;;;21.50;13.83;;;;;;;0.46;100.00;99518.70;1674305;83;21182;-68
2021/01/15 12:20:14;;;;;;;22.22;13.95;;;;;;;0.45;100.00;99520.90;1675444;83;21204;-67
2021/01/15 12:22:42;;;;;;;25.70;15.58;;;;;;;0.43;100.00;99522.33;1674796;83;21175;-68
2021/01/15 12:25:11;;;;;;;23.40;14.30;;;;;;;0.39;100.00;99518.90;1677685;83;21125;-67
2021/01/15 12:27:39;;;;;;;21.77;12.60;;;;;;;0.33;100.00;99520.70;1676200;83;22132;-67
2021/01/15 12:30:09;;;;;;;21.45;12.63;;;;;;;0.30;100.00;99514.56;1673742;83;21301;-68
2021/01/15 12:32:37;;;;;;;23.35;13.60;;;;;;;0.30;100.00;99514.56;1674723;83;21137;-68
2021/01/15 12:35:07;;;;;;;25.77;13.95;;;;;;;0.32;100.00;99510.12;1677500;83;21129;-68
2021/01/15 12:37:35;;;;;;;20.37;13.70;;;;;;;0.31;100.00;99516.20;1675348;83;21602;-67
2021/01/15 12:40:05;;;;;;;20.97;12.53;;;;;;;0.26;100.00;99520.91;1678529;83;22638;-68
2021/01/15 12:42:33;;;;;;;22.25;13.13;;;;;;;0.21;100.00;99525.97;1674495;83;21194;-67
2021/01/15 12:45:01;;;;;;;22.37;13.70;;;;;;;0.15;100.00;99530.37;1675014;83;21095;-69
2021/01/15 12:47:30;;;;;;;23.52;12.98;;;;;;;0.05;100.00;99528.26;1677089;83;21216;-69
2021/01/15 12:49:59;;;;;;;21.00;13.05;;;;;;;-0.10;100.00;99529.11;1677532;83;21232;-68
2021/01/15 12:52:29;;;;;;;24.92;13.68;;;;;;;-0.21;100.00;99524.58;1677400;83;21557;-68
2021/01/15 12:54:57;;;;;;;24.98;14.05;;;;;;;-0.33;100.00;99522.13;1674513;83;21184;-68
2021/01/15 12:57:28;;;;;;;29.77;15.85;;;;;;;-0.44;100.00;99522.23;1677804;83;21216;-67
2021/01/15 12:59:56;;;;;;;21.73;13.20;;;;;;;-0.54;100.00;99520.09;1675066;83;21204;-67
2021/01/15 13:02:26;;;;;;;26.93;15.75;;;;;;;-0.64;100.00;99520.08;1679638;83;21227;-67
2021/01/15 13:04:56;;;;;;;86.08;46.70;;;;;;;-0.71;100.00;99527.93;1682123;83;22304;-66
2021/01/15 13:07:24;;;;;;;50.40;24.77;;;;;;;-0.76;100.00;99532.16;1681544;83;21681;-66
2021/01/15 13:09:55;;;;;;;27.32;16.23;;;;;;;-0.79;100.00;99525.20;1681074;83;21237;-66
2021/01/15 13:12:24;;;;;;;29.98;17.07;;;;;;;-0.84;100.00;99524.77;1684636;83;21841;-66
2021/01/15 13:14:53;;;;;;;24.18;14.50;;;;;;;-0.88;100.00;99524.20;1683784;83;21211;-66
2021/01/15 13:17:23;;;;;;;31.90;23.02;;;;;;;-0.93;100.00;99529.37;1682461;83;21530;-65
2021/01/15 13:19:52;;;;;;;24.45;14.80;;;;;;;-0.98;100.00;99519.53;1682289;83;21308;-66
2021/01/15 13:22:21;;;;;;;26.52;15.18;;;;;;;-1.02;100.00;99523.28;1685235;83;21188;-65
2021/01/15 13:24:50;;;;;;;25.32;15.98;;;;;;;-1.07;100.00;99517.72;1680425;83;21672;-65
2021/01/15 13:27:18;;;;;;;30.17;19.32;;;;;;;-1.13;100.00;99521.61;1687946;83;21704;-65
2021/01/15 13:29:47;;;;;;;28.47;16.02;;;;;;;-1.17;100.00;99518.16;1688460;83;21402;-66
2021/01/15 13:32:15;;;;;;;22.13;13.75;;;;;;;-1.18;100.00;99519.88;1682233;83;21249;-66
2021/01/15 13:34:44;;;;;;;20.60;12.50;;;;;;;-1.19;100.00;99513.62;1683530;83;21256;-66
2021/01/15 13:37:13;;;;;;;22.87;14.18;;;;;;;-1.20;100.00;99506.89;1686686;83;21008;-63
2021/01/15 13:39:41;;;;;;;25.23;16.12;;;;;;;-1.22;100.00;99510.36;1684299;83;21180;-66
2021/01/15 13:42:09;;;;;;;27.00;14.83;;;;;;;-1.25;100.00;99510.64;1687464;83;22088;-66
2021/01/15 13:44:37;;;;;;;31.85;19.02;;;;;;;-1.31;100.00;99508.57;1684769;83;21615;-66
2021/01/15 13:47:07;;;;;;;41.55;22.52;;;;;;;-1.40;100.00;99505.50;1687774;83;21257;-65
2021/01/15 13:49:39;;;;;;;31.52;18.05;;;;;;;-1.51;100.00;99508.92;1684240;83;21272;-67
2021/01/15 13:52:06;;;;;;;39.67;23.55;;;;;;;-1.59;100.00;99513.01;1688812;83;21132;-67
2021/01/15 13:54:35;;;;;;;33.88;19.75;;;;;;;-1.71;100.00;99511.78;1685057;83;21454;-67
2021/01/15 13:57:04;;;;;;;36.85;21.25;;;;;;;-1.80;100.00;99511.72;1684775;83;21145;-65
2021/01/15 13:59:33;;;;;;;36.23;22.25;;;;;;;-1.89;100.00;99513.27;1686983;83;21546;-66
2021/01/15 14:02:01;;;;;;;65.15;42.27;;;;;;;-1.97;100.00;99512.59;1686637;83;21235;-66
2021/01/15 14:04:30;;;;;;;66.60;43.58;;;;;;;-2.04;100.00;99514.48;1686271;83;21500;-66
2021/01/15 14:07:00;;;;;;;43.95;29.95;;;;;;;-2.12;100.00;99515.08;1683824;83;21559;-64
2021/01/15 14:09:28;;;;;;;51.92;30.62;;;;;;;-2.22;100.00;99511.15;1686606;83;21556;-66
2021/01/15 14:11:57;;;;;;;49.15;29.20;;;;;;;-2.29;100.00;99517.66;1683159;83;21195;-67
2021/01/15 14:14:26;;;;;;;59.40;35.95;;;;;;;-2.37;100.00;99517.44;1688289;83;21158;-67
2021/01/15 14:16:55;;;;;;;60.95;37.70;;;;;;;-2.47;100.00;99515.24;1681248;84;21176;-66
2021/01/15 14:19:24;;;;;;;90.77;52.38;;;;;;;-2.55;100.00;99522.21;1669915;83;21217;-67
2021/01/15 14:21:52;;;;;;;75.17;40.43;;;;;;;-2.62;100.00;99521.52;1683860;84;21111;-68
2021/01/15 14:24:22;;;;;;;124.92;64.35;;;;;;;-2.70;100.00;99530.56;1689016;83;21133;-67
2021/01/15 14:26:50;;;;;;;123.85;59.53;;;;;;;-2.76;100.00;99525.95;1683379;83;21045;-65
2021/01/15 14:29:19;;;;;;;83.60;44.35;;;;;;;-2.81;100.00;99531.03;1687422;83;22526;-68
2021/01/15 14:31:48;;;;;;;79.53;39.13;;;;;;;-2.86;100.00;99530.11;1685383;83;22593;-68
2021/01/15 14:34:16;;;;;;;61.00;33.40;;;;;;;-2.90;100.00;99526.16;1687595;83;21556;-69
2021/01/15 14:36:45;;;;;;;59.98;32.53;;;;;;;-2.90;100.00;99531.27;1684065;84;21599;-68
2021/01/15 14:39:13;;;;;;;90.90;58.68;;;;;;;-2.91;100.00;99525.83;1685107;83;21506;-69
2021/01/15 14:41:46;;;;;;;151.10;90.62;;;;;;;-2.89;100.00;99532.88;1684660;83;21539;-70
2021/01/15 14:44:15;;;;;;;105.55;64.30;;;;;;;-2.88;100.00;99533.22;1684005;83;22150;-69
2021/01/15 14:46:44;;;;;;;90.70;55.48;;;;;;;-2.85;100.00;99526.62;1684130;83;21548;-65
2021/01/15 14:49:13;;;;;;;117.75;64.67;;;;;;;-2.83;100.00;99529.88;1684796;83;21676;-67
2021/01/15 14:51:44;;;;;;;64.07;38.33;;;;;;;-2.79;100.00;99533.02;1684305;83;21657;-68
2021/01/15 14:54:13;;;;;;;55.73;31.82;;;;;;;-2.79;100.00;99531.27;1685553;83;20983;-68
2021/01/15 14:56:41;;;;;;;50.58;28.92;;;;;;;-2.77;100.00;99534.50;1681449;84;21239;-69
2021/01/15 14:59:10;;;;;;;44.30;25.43;;;;;;;-2.77;100.00;99533.23;1685511;83;21639;-69
2021/01/15 15:01:41;;;;;;;52.80;31.25;;;;;;;-2.77;100.00;99529.40;1687457;83;21204;-68
2021/01/15 15:04:14;;;;;;;49.23;30.60;;;;;;;-2.76;100.00;99532.79;1650251;84;21195;-71
2021/01/15 15:06:46;;;;;;;47.80;26.65;;;;;;;-2.77;100.00;99534.97;1704738;83;21065;-69
2021/01/15 15:09:16;;;;;;;39.80;23.27;;;;;;;-2.78;100.00;99541.01;1704657;83;22371;-69
2021/01/15 15:11:44;;;;;;;36.88;23.12;;;;;;;-2.80;100.00;99539.86;1702291;83;21524;-69
2021/01/15 15:14:12;;;;;;;48.02;27.62;;;;;;;-2.82;100.00;99538.34;1704245;83;21506;-72
2021/01/15 15:16:41;;;;;;;48.60;25.08;;;;;;;-2.84;100.00;99542.30;1706934;83;21130;-68
2021/01/15 15:19:10;;;;;;;53.10;29.85;;;;;;;-2.83;100.00;99542.63;1702014;83;21490;-72
2021/01/15 15:21:39;;;;;;;71.72;38.88;;;;;;;-2.83;100.00;99545.65;1704785;83;21761;-71
2021/01/15 15:24:09;;;;;;;52.17;30.65;;;;;;;-2.84;100.00;99549.95;1703944;83;20995;-76
2021/01/15 15:26:37;;;;;;;64.65;38.95;;;;;;;-2.85;100.00;99547.02;1706053;83;21132;-72
2021/01/15 15:29:11;;;;;;;63.38;38.05;;;;;;;-2.86;100.00;99546.68;1703948;83;21168;-71